Time;durP1;ratioP1;P1;durP2;ratioP2;P2;SDS_P1;SDS_P2;PMS_P1;PMS_P2;Temp;Humidity;BMP_temperature;BMP_pressure;BME280_temperature;BME280_humidity;BME280_pressure;Samples;Min_cycle;Max_cycle;Signal;HPM_P1;HPM_P2
2021/09/29 00:01:13;;;;;;;;;;;20.60;65.20;;;;;;5028091;28;20312;-66
2021/09/29 00:03:39;;;;;;;;;;;20.60;65.00;;;;;;5026777;28;19964;-67
2021/09/29 00:06:05;;;;;;;;;;;20.60;65.30;;;;;;5025963;28;19921;-63
2021/09/29 00:08:30;;;;;;;;;;;20.60;65.20;;;;;;5027562;28;20320;-66
2021/09/29 00:10:55;;;;;;;;;;;20.60;65.30;;;;;;5024184;28;19921;-63
2021/09/29 00:13:24;;;;;;;;;;;20.60;65.30;;;;;;5027047;28;19928;-64
2021/09/29 00:15:50;;;;;;;;;;;20.60;65.30;;;;;;5023956;28;20445;-63
2021/09/29 00:18:15;;;;;;;;;;;20.60;65.30;;;;;;5026660;28;19921;-65
2021/09/29 00:20:41;;;;;;;;;;;20.60;65.30;;;;;;5024273;28;19924;-64
2021/09/29 00:23:06;;;;;;;;;;;20.60;65.30;;;;;;5027672;28;19922;-67
2021/09/29 00:25:32;;;;;;;;;;;20.60;65.30;;;;;;5025682;28;19921;-62
2021/09/29 00:27:57;;;;;;;;;;;20.60;65.40;;;;;;5027302;28;19944;-66
2021/09/29 00:30:23;;;;;;;;;;;20.60;65.40;;;;;;5026110;28;19917;-66
2021/09/29 00:32:48;;;;;;;;;;;20.60;65.40;;;;;;5065555;23;19928;-65
2021/09/29 00:35:14;;;;;;;;;;;20.60;65.50;;;;;;5061221;28;19924;-66
2021/09/29 00:37:39;;;;;;;;;;;20.60;65.50;;;;;;5061734;28;20542;-65
2021/09/29 00:40:05;;;;;;;;;;;20.50;65.50;;;;;;5056762;28;20571;-65
2021/09/29 00:42:30;;;;;;;;;;;20.60;65.40;;;;;;5066188;28;19967;-64
2021/09/29 00:44:56;;;;;;;;;;;20.50;65.50;;;;;;5055457;28;19931;-66
2021/09/29 00:47:21;;;;;;;;;;;20.60;65.30;;;;;;5063844;28;19916;-64
2021/09/29 00:49:47;;;;;;;;;;;20.50;65.50;;;;;;5070845;28;20105;-65
2021/09/29 00:52:13;;;;;;;;;;;20.50;65.50;;;;;;5069868;28;19966;-67
2021/09/29 00:54:38;;;;;;;;;;;20.50;65.40;;;;;;5067559;28;19916;-65
2021/09/29 00:57:04;;;;;;;;;;;20.50;65.50;;;;;;5063110;28;19917;-65
2021/09/29 00:59:29;;;;;;;;;;;20.50;65.50;;;;;;5069355;28;19916;-65
2021/09/29 01:01:55;;;;;;;;;;;20.50;65.20;;;;;;5063688;28;19930;-65
2021/09/29 01:04:21;;;;;;;;;;;20.50;65.50;;;;;;5064837;28;20341;-67
2021/09/29 01:06:52;;;;;;;;;;;20.50;65.30;;;;;;5044075;28;20046;-66
2021/09/29 01:09:22;;;;;;;;;;;20.60;64.90;;;;;;5070821;28;20414;-65
2021/09/29 01:11:51;;;;;;;;;;;20.60;65.30;;;;;;5064082;28;19920;-65
2021/09/29 01:14:19;;;;;;;;;;;20.50;64.70;;;;;;5055703;28;20010;-67
2021/09/29 01:16:45;;;;;;;;;;;20.60;65.10;;;;;;5069780;28;19966;-65
2021/09/29 01:19:30;;;;;;;;;;;20.60;65.20;;;;;;5064343;28;19951;-65
2021/09/29 01:22:00;;;;;;;;;;;20.60;65.30;;;;;;5062163;28;19951;-67
2021/09/29 01:24:28;;;;;;;;;;;20.40;65.20;;;;;;5045559;28;19916;-66
2021/09/29 01:26:54;;;;;;;;;;;20.50;65.30;;;;;;5036363;28;19923;-65
2021/09/29 01:29:20;;;;;;;;;;;20.50;65.40;;;;;;5047568;28;19920;-65
2021/09/29 01:31:45;;;;;;;;;;;20.50;65.40;;;;;;5063438;28;19924;-66
2021/09/29 01:34:11;;;;;;;;;;;20.50;65.40;;;;;;5045309;28;20568;-65
2021/09/29 01:36:36;;;;;;;;;;;20.50;65.50;;;;;;5052584;28;19954;-65
2021/09/29 01:39:04;;;;;;;;;;;20.50;65.40;;;;;;5066811;28;20346;-65
2021/09/29 01:41:30;;;;;;;;;;;20.50;65.50;;;;;;5072024;28;20272;-65
2021/09/29 01:43:55;;;;;;;;;;;20.50;65.50;;;;;;5046184;28;19924;-66
2021/09/29 01:46:21;;;;;;;;;;;20.50;65.60;;;;;;5071121;28;19920;-68
2021/09/29 01:49:06;;;;;;;;;;;20.50;65.60;;;;;;5063308;28;19917;-66
2021/09/29 01:51:31;;;;;;;;;;;20.50;65.70;;;;;;5061364;28;19938;-65
2021/09/29 01:53:57;;;;;;;;;;;20.50;65.70;;;;;;5044604;28;19921;-65
2021/09/29 01:56:22;;;;;;;;;;;20.50;65.60;;;;;;5042747;28;19967;-65
2021/09/29 01:58:48;;;;;;;;;;;20.50;65.60;;;;;;5077063;28;19916;-65
2021/09/29 02:01:13;;;;;;;;;;;20.50;65.70;;;;;;5058584;28;19916;-66
2021/09/29 02:03:42;;;;;;;;;;;20.50;65.70;;;;;;5066417;28;19986;-66
2021/09/29 02:06:07;;;;;;;;;;;20.40;65.60;;;;;;5071920;28;19982;-65
2021/09/29 02:08:33;;;;;;;;;;;20.40;65.70;;;;;;5069923;28;19920;-64
2021/09/29 02:10:58;;;;;;;;;;;20.50;65.50;;;;;;5070910;28;19923;-66
2021/09/29 02:13:24;;;;;;;;;;;20.50;65.40;;;;;;5062378;28;19928;-65
2021/09/29 02:15:49;;;;;;;;;;;20.50;65.60;;;;;;5063706;28;19920;-65
2021/09/29 02:18:15;;;;;;;;;;;20.50;65.60;;;;;;5066297;28;19916;-65
2021/09/29 02:20:41;;;;;;;;;;;20.50;65.60;;;;;;5063881;28;20188;-65
2021/09/29 02:23:06;;;;;;;;;;;20.50;65.30;;;;;;5065351;28;20433;-65
2021/09/29 02:25:31;;;;;;;;;;;20.50;65.30;;;;;;5066012;28;19946;-65
2021/09/29 02:27:57;;;;;;;;;;;20.50;65.50;;;;;;5076723;28;20444;-66
2021/09/29 02:30:22;;;;;;;;;;;20.50;65.50;;;;;;5072866;28;19963;-65
2021/09/29 02:32:48;;;;;;;;;;;20.40;65.20;;;;;;5076718;28;19923;-65
2021/09/29 02:35:13;;;;;;;;;;;20.40;65.40;;;;;;5068811;28;19917;-65
2021/09/29 02:37:39;;;;;;;;;;;20.40;65.60;;;;;;5072897;28;19924;-66
2021/09/29 02:40:05;;;;;;;;;;;20.40;65.50;;;;;;5071073;28;19923;-65
2021/09/29 02:42:30;;;;;;;;;;;20.50;65.30;;;;;;5071391;28;19927;-66
2021/09/29 02:44:56;;;;;;;;;;;20.40;65.80;;;;;;5063957;28;19916;-66
2021/09/29 02:47:21;;;;;;;;;;;20.40;65.50;;;;;;5069251;28;20013;-65
2021/09/29 02:49:47;;;;;;;;;;;20.40;65.60;;;;;;5068981;28;19960;-66
2021/09/29 02:52:12;;;;;;;;;;;20.40;64.80;;;;;;5067446;28;19920;-65
2021/09/29 02:54:38;;;;;;;;;;;20.40;65.60;;;;;;5072360;28;20455;-66
2021/09/29 02:57:03;;;;;;;;;;;20.40;65.40;;;;;;5071942;28;19916;-65
2021/09/29 02:59:29;;;;;;;;;;;20.40;65.80;;;;;;5067578;28;19917;-65
2021/09/29 03:01:54;;;;;;;;;;;20.40;65.80;;;;;;5066244;28;19959;-64
2021/09/29 03:04:19;;;;;;;;;;;20.40;65.90;;;;;;5068749;28;19931;-64
2021/09/29 03:06:45;;;;;;;;;;;20.40;65.80;;;;;;5069839;28;19925;-65
2021/09/29 03:09:10;;;;;;;;;;;20.40;65.70;;;;;;5067674;28;20349;-66
2021/09/29 03:11:36;;;;;;;;;;;20.40;65.80;;;;;;5073167;28;19916;-67
2021/09/29 03:14:01;;;;;;;;;;;20.40;65.90;;;;;;5073265;28;20354;-65
2021/09/29 03:16:27;;;;;;;;;;;20.40;65.80;;;;;;5066577;28;19920;-66
2021/09/29 03:18:54;;;;;;;;;;;20.40;65.80;;;;;;5065906;28;20386;-65
2021/09/29 03:21:20;;;;;;;;;;;20.40;65.90;;;;;;5069841;28;20658;-65
2021/09/29 03:23:45;;;;;;;;;;;20.40;66.40;;;;;;5068406;28;19917;-64
2021/09/29 03:26:11;;;;;;;;;;;20.40;65.70;;;;;;5068426;28;20444;-65
2021/09/29 03:28:36;;;;;;;;;;;20.40;65.80;;;;;;5069656;28;19923;-67
2021/09/29 03:31:02;;;;;;;;;;;20.40;65.90;;;;;;5061454;28;19920;-65
2021/09/29 03:33:27;;;;;;;;;;;20.40;65.80;;;;;;5069310;28;20375;-65
2021/09/29 03:35:53;;;;;;;;;;;20.40;65.60;;;;;;5072687;28;19924;-66
2021/09/29 03:38:18;;;;;;;;;;;20.40;65.70;;;;;;5069624;28;19917;-67
2021/09/29 03:40:43;;;;;;;;;;;20.40;65.20;;;;;;5068985;28;20275;-65
2021/09/29 03:43:09;;;;;;;;;;;20.40;65.90;;;;;;5065303;28;19921;-67
2021/09/29 03:45:34;;;;;;;;;;;20.30;65.90;;;;;;5079737;28;19927;-65
2021/09/29 03:48:00;;;;;;;;;;;20.40;65.80;;;;;;5075506;28;19916;-65
2021/09/29 03:50:25;;;;;;;;;;;20.40;65.70;;;;;;5065335;28;19917;-66
2021/09/29 03:52:51;;;;;;;;;;;20.40;65.60;;;;;;5066367;28;19920;-65
2021/09/29 03:55:16;;;;;;;;;;;20.40;65.60;;;;;;5068104;28;19969;-67
2021/09/29 03:57:42;;;;;;;;;;;20.30;65.10;;;;;;5072519;28;20279;-67
2021/09/29 04:00:08;;;;;;;;;;;20.40;65.60;;;;;;5067427;28;19917;-67
2021/09/29 04:02:34;;;;;;;;;;;20.40;65.30;;;;;;5074303;28;20287;-65
2021/09/29 04:04:59;;;;;;;;;;;20.30;65.70;;;;;;5069051;28;19924;-66
2021/09/29 04:07:25;;;;;;;;;;;20.30;65.40;;;;;;5050146;28;19930;-65
2021/09/29 04:09:50;;;;;;;;;;;20.30;65.70;;;;;;5065143;28;19968;-65
2021/09/29 04:12:16;;;;;;;;;;;20.30;65.70;;;;;;5069467;28;19927;-64
2021/09/29 04:14:41;;;;;;;;;;;20.30;65.90;;;;;;5066295;28;20305;-65
2021/09/29 04:17:07;;;;;;;;;;;20.30;65.70;;;;;;5067737;28;19987;-64
2021/09/29 04:19:32;;;;;;;;;;;20.30;66.20;;;;;;5064477;28;20459;-63
2021/09/29 04:21:58;;;;;;;;;;;20.30;66.30;;;;;;5065586;28;19920;-62
2021/09/29 04:24:23;;;;;;;;;;;20.30;65.90;;;;;;5068925;28;19924;-63
2021/09/29 04:26:49;;;;;;;;;;;20.30;66.40;;;;;;5065088;28;20010;-63
2021/09/29 04:29:14;;;;;;;;;;;20.30;66.50;;;;;;5049028;28;20310;-63
2021/09/29 04:31:39;;;;;;;;;;;20.30;66.30;;;;;;5070791;28;19926;-62
2021/09/29 04:34:05;;;;;;;;;;;20.30;66.10;;;;;;5050223;28;19942;-63
2021/09/29 04:36:30;;;;;;;;;;;20.30;66.20;;;;;;5063990;28;19927;-61
2021/09/29 04:38:56;;;;;;;;;;;20.30;66.30;;;;;;5065646;28;20341;-60
2021/09/29 04:41:23;;;;;;;;;;;20.30;66.20;;;;;;5067056;28;20488;-64
2021/09/29 04:43:48;;;;;;;;;;;20.30;66.20;;;;;;5063795;28;19916;-62
2021/09/29 04:46:14;;;;;;;;;;;20.30;66.40;;;;;;5066541;28;19924;-64
2021/09/29 04:48:39;;;;;;;;;;;20.20;66.40;;;;;;5067750;28;19923;-64
2021/09/29 04:51:05;;;;;;;;;;;20.20;66.30;;;;;;5067925;28;20294;-64
2021/09/29 04:53:30;;;;;;;;;;;20.20;66.90;;;;;;5064965;28;19928;-65
2021/09/29 04:55:59;;;;;;;;;;;20.20;66.30;;;;;;5066533;28;19922;-58
2021/09/29 04:58:25;;;;;;;;;;;20.20;66.30;;;;;;5066806;28;19924;-63
2021/09/29 05:00:50;;;;;;;;;;;20.20;66.30;;;;;;5070812;28;20464;-65
2021/09/29 05:03:17;;;;;;;;;;;20.20;66.20;;;;;;5064503;28;19924;-65
2021/09/29 05:05:43;;;;;;;;;;;20.20;67.10;;;;;;5071154;28;19923;-65
2021/09/29 05:08:08;;;;;;;;;;;20.20;67.80;;;;;;5067088;28;19916;-65
2021/09/29 05:10:34;;;;;;;;;;;20.20;67.90;;;;;;5050665;28;19916;-65
2021/09/29 05:12:59;;;;;;;;;;;20.20;67.80;;;;;;5070350;28;19921;-63
2021/09/29 05:15:25;;;;;;;;;;;20.20;67.70;;;;;;5045891;28;19912;-65
2021/09/29 05:17:50;;;;;;;;;;;20.20;67.70;;;;;;5063556;28;20003;-65
2021/09/29 05:20:16;;;;;;;;;;;20.20;68.30;;;;;;5063821;28;19965;-65
2021/09/29 05:22:41;;;;;;;;;;;20.20;67.70;;;;;;5063646;28;19913;-65
2021/09/29 05:25:07;;;;;;;;;;;20.20;67.80;;;;;;5046737;28;20478;-64
2021/09/29 05:27:32;;;;;;;;;;;20.20;67.60;;;;;;5064237;28;19912;-65
2021/09/29 05:29:58;;;;;;;;;;;20.20;67.40;;;;;;5062866;28;19912;-65
2021/09/29 05:32:23;;;;;;;;;;;20.20;67.40;;;;;;5063907;28;19921;-64
2021/09/29 05:34:49;;;;;;;;;;;20.20;67.50;;;;;;5063986;28;19913;-64
2021/09/29 05:37:14;;;;;;;;;;;20.20;67.40;;;;;;5063697;28;19912;-64
2021/09/29 05:39:40;;;;;;;;;;;20.20;67.40;;;;;;5063875;28;19917;-65
2021/09/29 05:42:05;;;;;;;;;;;20.20;67.40;;;;;;5063737;28;19923;-65
2021/09/29 05:44:30;;;;;;;;;;;20.20;67.40;;;;;;5062284;28;19969;-65
2021/09/29 05:46:56;;;;;;;;;;;20.20;67.50;;;;;;5063549;28;19928;-65
2021/09/29 05:49:22;;;;;;;;;;;20.20;67.50;;;;;;5063643;28;20398;-60
2021/09/29 05:51:47;;;;;;;;;;;20.20;67.40;;;;;;5063381;28;19912;-64
2021/09/29 05:54:13;;;;;;;;;;;20.20;67.40;;;;;;5062476;28;19913;-64
2021/09/29 05:56:38;;;;;;;;;;;20.20;67.00;;;;;;5059069;28;20395;-65
2021/09/29 05:59:04;;;;;;;;;;;20.20;67.00;;;;;;5063481;28;19920;-65
2021/09/29 06:01:29;;;;;;;;;;;20.20;67.10;;;;;;5063575;28;20271;-65
2021/09/29 06:03:55;;;;;;;;;;;20.20;67.10;;;;;;5063435;28;19913;-64
2021/09/29 06:06:20;;;;;;;;;;;20.20;67.20;;;;;;5063397;28;19969;-65
2021/09/29 06:08:45;;;;;;;;;;;20.10;67.20;;;;;;5063265;28;19919;-65
2021/09/29 06:11:11;;;;;;;;;;;20.20;67.20;;;;;;5063952;28;19912;-65
2021/09/29 06:13:36;;;;;;;;;;;20.20;67.10;;;;;;5063415;28;19921;-65
2021/09/29 06:16:07;;;;;;;;;;;20.20;67.20;;;;;;5063704;28;19927;-64
2021/09/29 06:18:37;;;;;;;;;;;20.20;66.90;;;;;;5045772;28;25598;-64
2021/09/29 06:21:03;;;;;;;;;;;20.20;67.00;;;;;;5063806;28;19912;-65
2021/09/29 06:23:28;;;;;;;;;;;20.20;67.20;;;;;;5063360;28;19920;-65
2021/09/29 06:25:54;;;;;;;;;;;20.20;67.70;;;;;;5063623;28;19916;-64
2021/09/29 06:28:19;;;;;;;;;;;20.20;67.20;;;;;;5063390;28;19944;-60
2021/09/29 06:30:45;;;;;;;;;;;20.20;67.10;;;;;;5063262;28;19919;-64
2021/09/29 06:33:10;;;;;;;;;;;20.20;67.00;;;;;;5083060;22;20338;-68
2021/09/29 06:35:36;;;;;;;;;;;20.20;67.00;;;;;;5073287;28;20005;-68
2021/09/29 06:38:01;;;;;;;;;;;20.10;67.10;;;;;;5062391;28;19923;-68
2021/09/29 06:40:27;;;;;;;;;;;20.20;66.90;;;;;;5089231;28;19925;-68
2021/09/29 06:42:52;;;;;;;;;;;20.20;67.00;;;;;;5072987;28;19969;-68
2021/09/29 06:45:18;;;;;;;;;;;20.20;66.80;;;;;;5052673;28;19919;-68
2021/09/29 06:47:45;;;;;;;;;;;20.20;67.10;;;;;;5054037;28;19916;-68
2021/09/29 06:50:11;;;;;;;;;;;20.10;67.00;;;;;;5081043;28;19984;-68
2021/09/29 06:52:36;;;;;;;;;;;20.20;67.00;;;;;;5094974;28;20003;-68
2021/09/29 06:55:02;;;;;;;;;;;20.10;67.00;;;;;;5087414;28;19911;-68
2021/09/29 06:57:27;;;;;;;;;;;20.20;67.00;;;;;;5059524;28;19919;-68
2021/09/29 06:59:53;;;;;;;;;;;20.20;67.00;;;;;;5068354;28;19919;-68
2021/09/29 07:02:18;;;;;;;;;;;20.10;66.90;;;;;;5090287;28;19912;-68
2021/09/29 07:04:44;;;;;;;;;;;20.10;67.10;;;;;;5085535;28;19917;-68
2021/09/29 07:07:09;;;;;;;;;;;20.20;67.10;;;;;;5076401;28;19919;-67
2021/09/29 07:09:35;;;;;;;;;;;20.10;67.10;;;;;;5086901;28;19922;-68
2021/09/29 07:12:00;;;;;;;;;;;20.10;67.10;;;;;;5075786;28;19912;-68
2021/09/29 07:14:26;;;;;;;;;;;20.10;67.10;;;;;;5075469;28;19920;-68
2021/09/29 07:16:52;;;;;;;;;;;20.10;67.10;;;;;;5074702;28;19958;-69
2021/09/29 07:19:17;;;;;;;;;;;20.20;66.90;;;;;;5091508;28;20011;-68
2021/09/29 07:21:43;;;;;;;;;;;20.20;66.90;;;;;;5101974;28;20014;-68
2021/09/29 07:24:08;;;;;;;;;;;20.20;66.90;;;;;;5093241;28;20373;-68
2021/09/29 07:26:34;;;;;;;;;;;20.20;67.00;;;;;;5090405;28;19916;-68
2021/09/29 07:28:59;;;;;;;;;;;20.10;67.10;;;;;;5071042;28;19916;-68
2021/09/29 07:31:25;;;;;;;;;;;20.10;67.20;;;;;;5087806;28;20293;-68
2021/09/29 07:33:50;;;;;;;;;;;20.10;67.10;;;;;;5088871;28;19955;-68
2021/09/29 07:36:16;;;;;;;;;;;20.10;67.20;;;;;;5077143;28;19917;-68
2021/09/29 07:38:41;;;;;;;;;;;20.10;67.10;;;;;;5100872;28;20479;-68
2021/09/29 07:41:07;;;;;;;;;;;20.10;67.20;;;;;;5057598;28;19913;-68
2021/09/29 07:43:32;;;;;;;;;;;20.10;67.20;;;;;;5083739;28;20169;-68
2021/09/29 07:45:58;;;;;;;;;;;20.10;67.10;;;;;;5076078;28;19912;-68
2021/09/29 07:48:24;;;;;;;;;;;20.10;67.60;;;;;;5101247;28;19911;-68
2021/09/29 07:50:49;;;;;;;;;;;20.10;67.10;;;;;;5062887;28;20349;-68
2021/09/29 07:53:17;;;;;;;;;;;20.10;67.00;;;;;;5061110;28;19943;-68
2021/09/29 07:55:42;;;;;;;;;;;20.10;67.10;;;;;;5070426;28;19919;-68
2021/09/29 07:58:08;;;;;;;;;;;20.10;67.30;;;;;;5089588;28;19912;-68
2021/09/29 08:00:33;;;;;;;;;;;20.10;67.30;;;;;;5103382;28;19976;-68
2021/09/29 08:02:59;;;;;;;;;;;20.10;67.30;;;;;;5082721;28;19912;-68
2021/09/29 08:05:24;;;;;;;;;;;20.10;67.30;;;;;;5079917;28;19912;-68
2021/09/29 08:07:50;;;;;;;;;;;20.10;67.30;;;;;;5105897;28;19912;-68
2021/09/29 08:10:16;;;;;;;;;;;20.10;67.30;;;;;;5081270;28;19925;-68
2021/09/29 08:12:41;;;;;;;;;;;20.10;67.40;;;;;;5074531;28;19920;-68
2021/09/29 08:15:12;;;;;;;;;;;20.10;67.50;;;;;;5075488;28;20270;-68
2021/09/29 08:17:38;;;;;;;;;;;20.10;67.30;;;;;;5096587;28;19912;-68
2021/09/29 08:20:04;;;;;;;;;;;20.10;67.40;;;;;;5086422;28;19912;-68
2021/09/29 08:22:29;;;;;;;;;;;20.00;67.30;;;;;;5090472;28;19999;-68
2021/09/29 08:24:59;;;;;;;;;;;20.10;67.50;;;;;;5074057;28;20428;-68
2021/09/29 08:35:57;;;;;;;;;;;20.10;67.40;;;;;;5079218;28;19927;-68
2021/09/29 08:38:33;;;;;;;;;;;20.10;67.40;;;;;;5100835;28;19964;-68
2021/09/29 08:41:16;;;;;;;;;;;20.10;67.40;;;;;;5103439;28;19959;-68
2021/09/29 08:46:21;;;;;;;;;;;20.10;67.30;;;;;;5085238;28;20023;-68
2021/09/29 08:54:11;;;;;;;;;;;20.10;67.20;;;;;;5079476;28;19923;-68
2021/09/29 08:56:47;;;;;;;;;;;20.10;67.20;;;;;;5078087;28;19913;-68
2021/09/29 09:16:08;;;;;;;;;;;20.10;67.40;;;;;;4982188;28;19913;-68
2021/09/29 09:18:34;;;;;;;;;;;20.10;67.40;;;;;;4995408;28;19930;-68
2021/09/29 09:21:05;;;;;;;;;;;20.10;67.40;;;;;;5030121;28;19917;-68
2021/09/29 09:23:37;;;;;;;;;;;20.10;67.40;;;;;;5090119;28;19939;-68
2021/09/29 09:26:13;;;;;;;;;;;20.00;67.50;;;;;;5088447;28;20387;-68
2021/09/29 09:28:38;;;;;;;;;;;20.10;67.50;;;;;;5053290;28;19917;-68
2021/09/29 09:31:08;;;;;;;;;;;20.00;67.40;;;;;;5092364;28;20038;-68
2021/09/29 09:33:44;;;;;;;;;;;20.00;67.60;;;;;;5059657;28;19931;-68
2021/09/29 09:36:09;;;;;;;;;;;20.00;67.50;;;;;;5070999;28;21556;-68
2021/09/29 09:38:36;;;;;;;;;;;20.00;67.50;;;;;;5072540;28;19913;-68
2021/09/29 09:41:01;;;;;;;;;;;20.00;67.50;;;;;;5065921;28;19920;-68
2021/09/29 09:43:27;;;;;;;;;;;20.00;67.40;;;;;;5067928;28;20484;-68
2021/09/29 09:45:53;;;;;;;;;;;20.00;67.60;;;;;;5094857;28;19913;-68
2021/09/29 09:48:26;;;;;;;;;;;20.00;67.50;;;;;;5077506;28;19920;-68
2021/09/29 09:51:04;;;;;;;;;;;20.00;67.60;;;;;;5081529;28;19995;-68
2021/09/29 09:53:29;;;;;;;;;;;20.00;67.60;;;;;;5079028;28;20037;-68
2021/09/29 09:55:54;;;;;;;;;;;20.00;67.40;;;;;;5076331;28;19991;-68
2021/09/29 09:58:20;;;;;;;;;;;20.00;67.50;;;;;;5079338;28;19912;-68
2021/09/29 10:00:45;;;;;;;;;;;20.00;67.40;;;;;;5076503;28;19915;-68
2021/09/29 10:03:11;;;;;;;;;;;20.00;67.60;;;;;;5077249;28;20426;-68
2021/09/29 10:05:38;;;;;;;;;;;20.00;67.60;;;;;;5057734;28;19912;-68
2021/09/29 10:08:06;;;;;;;;;;;20.00;67.70;;;;;;5083909;28;20015;-68
2021/09/29 10:13:13;;;;;;;;;;;20.00;67.60;;;;;;5066654;28;19923;-68
2021/09/29 10:22:50;;;;;;;;;;;20.00;67.70;;;;;;5087717;28;19920;-68
2021/09/29 10:26:07;;;;;;;;;;;20.00;67.70;;;;;;5084059;28;19919;-68
2021/09/29 10:27:11;;;;;;;;;;;20.00;67.80;;;;;;5061275;28;19913;-68
2021/09/29 10:29:38;;;;;;;;;;;20.00;67.70;;;;;;5098290;28;19916;-69
2021/09/29 10:32:14;;;;;;;;;;;20.00;67.50;;;;;;5071861;28;19970;-68
2021/09/29 10:34:50;;;;;;;;;;;20.00;67.50;;;;;;5063594;28;19921;-68
2021/09/29 11:02:47;;;;;;;;;;;20.00;67.80;;;;;;5093760;28;20045;-68
2021/09/29 11:04:36;;;;;;;;;;;20.00;67.90;;;;;;5071361;28;19923;-68
2021/09/29 11:07:54;;;;;;;;;;;19.90;67.70;;;;;;5086466;28;19919;-68
2021/09/29 11:10:33;;;;;;;;;;;19.90;67.90;;;;;;5079320;28;19916;-68
2021/09/29 11:27:28;;;;;;;;;;;19.90;68.00;;;;;;5083982;28;20336;-68
2021/09/29 11:30:02;;;;;;;;;;;19.90;68.00;;;;;;5087413;28;19920;-68
2021/09/29 11:32:42;;;;;;;;;;;19.90;67.80;;;;;;5080383;28;19923;-67
2021/09/29 12:08:07;;;;;;;;;;;19.90;66.80;;;;;;5067779;28;22168;-68
2021/09/29 12:10:34;;;;;;;;;;;19.90;65.80;;;;;;5066079;28;19913;-68
2021/09/29 12:13:04;;;;;;;;;;;19.90;66.90;;;;;;5070338;28;19916;-68
2021/09/29 12:15:29;;;;;;;;;;;19.90;66.90;;;;;;5061544;28;20289;-68
2021/09/29 12:17:55;;;;;;;;;;;19.90;66.80;;;;;;5074938;28;19913;-68
2021/09/29 12:20:23;;;;;;;;;;;19.90;66.70;;;;;;5062521;28;19977;-68
2021/09/29 12:22:52;;;;;;;;;;;19.90;66.50;;;;;;5081245;28;19912;-68
2021/09/29 12:25:47;;;;;;;;;;;19.90;66.90;;;;;;5086877;28;19921;-68
2021/09/29 12:36:14;;;;;;;;;;;19.90;64.80;;;;;;5100408;28;19923;-65
2021/09/29 12:38:39;;;;;;;;;;;19.90;65.20;;;;;;5092685;28;19915;-65
2021/09/29 12:41:05;;;;;;;;;;;19.90;65.50;;;;;;5096640;28;19918;-66
2021/09/29 12:43:31;;;;;;;;;;;19.90;64.80;;;;;;5104347;28;19973;-67
2021/09/29 12:45:56;;;;;;;;;;;19.90;65.80;;;;;;5096440;28;20343;-66
2021/09/29 12:48:28;;;;;;;;;;;19.90;66.00;;;;;;5099181;28;19923;-68
2021/09/29 12:51:01;;;;;;;;;;;19.90;66.10;;;;;;5093820;28;19918;-66
2021/09/29 12:53:45;;;;;;;;;;;19.90;66.00;;;;;;5091896;28;20306;-64
2021/09/29 12:56:15;;;;;;;;;;;19.90;65.90;;;;;;5095924;28;19915;-65
2021/09/29 12:58:40;;;;;;;;;;;19.90;66.10;;;;;;5088823;28;20663;-66
2021/09/29 13:01:06;;;;;;;;;;;19.90;66.00;;;;;;5088692;28;19912;-66
2021/09/29 13:03:31;;;;;;;;;;;19.80;66.20;;;;;;5101012;28;20374;-65
2021/09/29 13:06:00;;;;;;;;;;;19.90;63.40;;;;;;5095083;28;19919;-66
2021/09/29 13:08:26;;;;;;;;;;;19.90;65.60;;;;;;5095384;28;19918;-67
2021/09/29 13:10:51;;;;;;;;;;;19.90;65.90;;;;;;5091461;28;19916;-65
2021/09/29 13:13:17;;;;;;;;;;;19.90;65.40;;;;;;5094167;28;20220;-65
2021/09/29 13:15:45;;;;;;;;;;;19.90;66.00;;;;;;5099715;28;19915;-66
2021/09/29 13:18:15;;;;;;;;;;;19.90;66.30;;;;;;5091482;28;19926;-64
2021/09/29 13:20:42;;;;;;;;;;;19.90;65.80;;;;;;5097876;28;19969;-67
2021/09/29 13:23:14;;;;;;;;;;;19.80;66.10;;;;;;5097399;28;19912;-66
2021/09/29 13:36:36;;;;;;;;;;;19.90;63.90;;;;;;5103249;28;20000;-66
2021/09/29 13:39:03;;;;;;;;;;;19.90;66.00;;;;;;5095491;28;19982;-65
2021/09/29 13:41:28;;;;;;;;;;;19.90;65.70;;;;;;5087657;28;19961;-66
2021/09/29 13:43:54;;;;;;;;;;;19.90;66.40;;;;;;5067475;28;19920;-66
2021/09/29 13:46:19;;;;;;;;;;;19.90;66.30;;;;;;5084908;28;19924;-65
2021/09/29 13:48:44;;;;;;;;;;;19.80;66.50;;;;;;5092444;28;19931;-67
2021/09/29 13:51:10;;;;;;;;;;;19.80;66.50;;;;;;5101511;28;20176;-65
2021/09/29 13:53:35;;;;;;;;;;;19.90;65.90;;;;;;5092520;28;20558;-66
2021/09/29 13:56:05;;;;;;;;;;;19.80;66.10;;;;;;5091917;28;19963;-66
2021/09/29 13:58:54;;;;;;;;;;;19.90;66.00;;;;;;5089341;28;20480;-66
2021/09/29 14:34:02;;;;;;;;;;;19.90;65.80;;;;;;5095491;28;19996;-65
2021/09/29 14:36:28;;;;;;;;;;;19.90;65.70;;;;;;5089686;28;19971;-64
2021/09/29 14:38:53;;;;;;;;;;;20.00;65.30;;;;;;5106631;28;19916;-66
2021/09/29 14:41:19;;;;;;;;;;;19.90;65.60;;;;;;5102892;28;19911;-66
2021/09/29 14:43:44;;;;;;;;;;;19.90;65.80;;;;;;5098649;28;20292;-65
2021/09/29 14:46:10;;;;;;;;;;;19.90;65.40;;;;;;5094664;28;19916;-66
2021/09/29 14:48:35;;;;;;;;;;;19.90;65.40;;;;;;5097994;28;19973;-66
2021/09/29 14:51:06;;;;;;;;;;;20.00;65.90;;;;;;5103815;28;19923;-66
2021/09/29 14:53:33;;;;;;;;;;;19.90;65.60;;;;;;5099997;28;19919;-67
2021/09/29 14:55:58;;;;;;;;;;;19.90;65.30;;;;;;5073180;28;20039;-66
2021/09/29 14:58:25;;;;;;;;;;;20.00;64.90;;;;;;5095732;28;19998;-68
2021/09/29 15:00:51;;;;;;;;;;;19.90;66.10;;;;;;5102021;28;20381;-66
2021/09/29 15:03:17;;;;;;;;;;;19.90;65.80;;;;;;5098241;28;19919;-66
2021/09/29 15:05:42;;;;;;;;;;;19.90;65.90;;;;;;5107904;28;19912;-67
2021/09/29 15:08:07;;;;;;;;;;;19.90;66.00;;;;;;5097754;28;19913;-63
2021/09/29 15:10:33;;;;;;;;;;;19.90;66.10;;;;;;5097603;28;19912;-67
2021/09/29 15:13:04;;;;;;;;;;;19.90;66.00;;;;;;5097880;28;19927;-67
2021/09/29 15:15:32;;;;;;;;;;;19.90;66.00;;;;;;5098109;28;19912;-65
2021/09/29 15:18:03;;;;;;;;;;;19.90;66.00;;;;;;5102018;28;20517;-66
2021/09/29 15:26:07;;;;;;;;;;;19.90;66.00;;;;;;5085942;28;19981;-66
2021/09/29 15:31:22;;;;;;;;;;;19.90;66.30;;;;;;5091153;28;19919;-65
2021/09/29 15:47:49;;;;;;;;;;;19.90;65.70;;;;;;5084649;28;20660;-65
2021/09/29 15:53:14;;;;;;;;;;;20.00;65.30;;;;;;5097139;28;19969;-66
2021/09/29 15:55:47;;;;;;;;;;;19.90;65.50;;;;;;5064290;28;19991;-64
2021/09/29 15:58:38;;;;;;;;;;;19.90;66.10;;;;;;5089045;28;20345;-66
2021/09/29 16:01:10;;;;;;;;;;;19.90;66.00;;;;;;5090544;28;19912;-67
2021/09/29 16:11:58;;;;;;;;;;;19.90;66.00;;;;;;5100843;28;19919;-66
2021/09/29 16:22:54;;;;;;;;;;;19.90;66.20;;;;;;5060338;28;19916;-65
2021/09/29 16:31:06;;;;;;;;;;;19.90;65.40;;;;;;5091144;28;19936;-65
2021/09/29 16:36:06;;;;;;;;;;;20.00;65.20;;;;;;5100063;28;19939;-65
2021/09/29 16:38:31;;;;;;;;;;;19.90;65.60;;;;;;5088796;28;20386;-65
2021/09/29 16:40:57;;;;;;;;;;;20.00;65.40;;;;;;5098555;28;20374;-64
2021/09/29 16:43:22;;;;;;;;;;;19.90;66.10;;;;;;5087566;28;19965;-62
2021/09/29 16:45:48;;;;;;;;;;;19.90;64.50;;;;;;5094234;28;20290;-64
2021/09/29 16:48:17;;;;;;;;;;;19.90;65.90;;;;;;5100020;28;19996;-65
2021/09/29 16:51:29;;;;;;;;;;;19.90;66.10;;;;;;5101529;28;19912;-64
2021/09/29 16:53:34;;;;;;;;;;;19.90;66.00;;;;;;5057144;28;19920;-65
2021/09/29 16:56:00;;;;;;;;;;;19.90;65.40;;;;;;5096587;28;19976;-64
2021/09/29 16:58:34;;;;;;;;;;;19.90;65.30;;;;;;5077310;28;19923;-65
2021/09/29 17:01:08;;;;;;;;;;;19.90;65.50;;;;;;5094262;28;20334;-65
2021/09/29 17:03:34;;;;;;;;;;;19.90;65.00;;;;;;5101912;28;19954;-64
2021/09/29 17:05:59;;;;;;;;;;;19.90;65.40;;;;;;5088639;28;20398;-64
2021/09/29 17:08:24;;;;;;;;;;;20.00;65.50;;;;;;5101838;28;19916;-65
2021/09/29 17:10:53;;;;;;;;;;;20.00;63.70;;;;;;5084032;28;19916;-64
2021/09/29 17:13:20;;;;;;;;;;;19.90;65.60;;;;;;5075917;28;19927;-65
2021/09/29 17:15:45;;;;;;;;;;;19.90;65.90;;;;;;5093047;28;19920;-64
2021/09/29 17:18:11;;;;;;;;;;;19.90;65.80;;;;;;5084311;28;19916;-61
2021/09/29 17:20:36;;;;;;;;;;;19.90;65.40;;;;;;5083725;28;20431;-64
2021/09/29 17:23:02;;;;;;;;;;;19.90;65.80;;;;;;5092337;28;19919;-65
2021/09/29 17:25:29;;;;;;;;;;;19.90;65.50;;;;;;5091425;28;19916;-65
2021/09/29 17:27:55;;;;;;;;;;;19.90;65.90;;;;;;5103904;28;20290;-65
2021/09/29 17:30:25;;;;;;;;;;;19.90;66.00;;;;;;5099448;28;19996;-65
2021/09/29 17:38:18;;;;;;;;;;;19.90;65.80;;;;;;5084639;28;19977;-64
2021/09/29 17:48:06;;;;;;;;;;;19.90;65.60;;;;;;5092426;28;19918;-64
2021/09/29 17:53:58;;;;;;;;;;;19.90;66.20;;;;;;5090455;28;19923;-65
2021/09/29 17:56:23;;;;;;;;;;;19.90;66.20;;;;;;5103512;28;19912;-64
2021/09/29 17:58:49;;;;;;;;;;;19.90;66.20;;;;;;5084195;28;20028;-64
2021/09/29 18:01:28;;;;;;;;;;;19.90;66.30;;;;;;5092475;28;19961;-65
2021/09/29 18:04:02;;;;;;;;;;;19.90;66.30;;;;;;5092162;28;20492;-64
2021/09/29 18:06:44;;;;;;;;;;;19.90;66.10;;;;;;5098367;28;19965;-64
2021/09/29 18:09:10;;;;;;;;;;;19.90;65.90;;;;;;5100386;28;20006;-65